WXM80 ListenWXM80 Stop

You find our weather info also at:

UK Metoffice

WeatherCloud

Weather Underground

Northeastern Weather Network

AWEKAS

Citizen Weather Observer Program (CWOP)

HAMweather, WeatherForYou, PWS Weather


Weather Underground History page Text

Daily Summary for August 12, 2017 Units:  Both    English   Metric
« Previous Day
Next Day »
Daily Weekly Monthly Yearly Custom
  High: Low: Average:
Temperature: 75.8 °F /  24.3 °C 62.6 °F /  17 °C 70.6 °F /  21.4 °C
Dew Point: 71.2 °F /  21.8 °C 59.7 °F /  15.4 °C 66.5 °F /  19.2 °C
Humidity: 94 % 74 % 87 %
Wind Speed: 3.8 mph /  6.1 km/h - 0.4 mph /  0.6 km/h
Wind Gust: 7.0 mph /  11.3 km/h - -
Wind:- - ESE
Pressure: 29.98 in /  1015.1 hPa 29.81 in /  1009.4 hPa -
Precipitation: 0.06 in /  1.52 mm    
Historical Graphs
 
 
Tabular Data for August 12, 2017
Time Temperature Dew Point Pressure Wind Wind Speed Wind Gust Humidity Rainfall Rate (Hourly)
00:01 71.4 °F /  21.9 °C 62.7 °F /  17.1 °C 29.96 in /  1014.4 hPa Calm     74 % 0.00 in /  0 mm
00:04 71.4 °F /  21.9 °C 62.7 °F /  17.1 °C 29.96 in /  1014.4 hPa Calm   1.2 mph /  1.9 km/h 74 % 0.00 in /  0 mm
00:09 71.3 °F /  21.8 °C 63.0 °F /  17.2 °C 29.96 in /  1014.4 hPa Calm     75 % 0.00 in /  0 mm
00:15 71.2 °F /  21.8 °C 62.5 °F /  16.9 °C 29.96 in /  1014.4 hPa Calm     74 % 0.00 in /  0 mm
00:20 71.2 °F /  21.8 °C 62.9 °F /  17.2 °C 29.96 in /  1014.4 hPa Calm     75 % 0.00 in /  0 mm
00:25 71.1 °F /  21.7 °C 63.1 °F /  17.3 °C 29.96 in /  1014.4 hPa Calm     76 % 0.00 in /  0 mm
00:30 71.1 °F /  21.7 °C 62.8 °F /  17.1 °C 29.96 in /  1014.4 hPa Calm     75 % 0.00 in /  0 mm
00:35 71.1 °F /  21.7 °C 63.5 °F /  17.5 °C 29.96 in /  1014.4 hPa Calm     77 % 0.00 in /  0 mm
00:40 71.1 °F /  21.7 °C 63.9 °F /  17.7 °C 29.95 in /  1014.1 hPa Calm     78 % 0.00 in /  0 mm
00:45 71.0 °F /  21.7 °C 64.2 °F /  17.9 °C 29.95 in /  1014.1 hPa Calm     79 % 0.00 in /  0 mm
00:50 70.9 °F /  21.6 °C 64.1 °F /  17.8 °C 29.96 in /  1014.4 hPa Calm     79 % 0.00 in /  0 mm
00:55 70.8 °F /  21.6 °C 64.7 °F /  18.2 °C 29.96 in /  1014.4 hPa Calm     81 % 0.00 in /  0 mm
01:00 70.7 °F /  21.5 °C 64.6 °F /  18.1 °C 29.96 in /  1014.4 hPa Calm     81 % 0.00 in /  0 mm
01:05 70.6 °F /  21.4 °C 64.8 °F /  18.2 °C 29.95 in /  1014.1 hPa Calm     82 % 0.00 in /  0 mm
01:10 70.4 °F /  21.3 °C 65.0 °F /  18.3 °C 29.95 in /  1014.1 hPa Calm     83 % 0.00 in /  0 mm
01:15 70.3 °F /  21.3 °C 64.9 °F /  18.3 °C 29.96 in /  1014.4 hPa Calm     83 % 0.00 in /  0 mm
01:20 70.1 °F /  21.2 °C 64.7 °F /  18.2 °C 29.96 in /  1014.4 hPa Calm     83 % 0.00 in /  0 mm
01:25 70.0 °F /  21.1 °C 64.9 °F /  18.3 °C 29.97 in /  1014.8 hPa Calm     84 % 0.00 in /  0 mm
01:30 69.9 °F /  21.1 °C 64.8 °F /  18.2 °C 29.97 in /  1014.8 hPa SE 0.1 mph /  0.2 km/h 1.2 mph /  1.9 km/h 84 % 0.00 in /  0 mm
01:35 69.8 °F /  21 °C 65.1 °F /  18.4 °C 29.96 in /  1014.4 hPa Calm     85 % 0.01 in /  0.25 mm
01:40 69.7 °F /  20.9 °C 65.0 °F /  18.3 °C 29.96 in /  1014.4 hPa Calm     85 % 0.01 in /  0.25 mm
01:45 69.6 °F /  20.9 °C 65.2 °F /  18.4 °C 29.96 in /  1014.4 hPa Calm     86 % 0.01 in /  0.25 mm
01:50 69.5 °F /  20.8 °C 65.1 °F /  18.4 °C 29.96 in /  1014.4 hPa Calm     86 % 0.01 in /  0.25 mm
01:55 69.5 °F /  20.8 °C 65.8 °F /  18.8 °C 29.96 in /  1014.4 hPa Calm     88 % 0.01 in /  0.25 mm
02:01 69.4 °F /  20.8 °C 65.4 °F /  18.6 °C 29.97 in /  1014.8 hPa Calm   1.2 mph /  1.9 km/h 87 % 0.01 in /  0.25 mm
02:05 69.3 °F /  20.7 °C 65.6 °F /  18.7 °C 29.97 in /  1014.8 hPa Calm     88 % 0.01 in /  0.25 mm
02:10 69.2 °F /  20.7 °C 65.5 °F /  18.6 °C 29.97 in /  1014.8 hPa Calm     88 % 0.00 in /  0 mm
02:15 69.0 °F /  20.6 °C 65.3 °F /  18.5 °C 29.98 in /  1015.1 hPa Calm     88 % 0.01 in /  0.25 mm
02:20 68.5 °F /  20.3 °C 62.8 °F /  17.1 °C 29.98 in /  1015.1 hPa Calm   5.0 mph /  8 km/h 82 % 0.00 in /  0 mm
02:26 68.0 °F /  20 °C 61.6 °F /  16.4 °C 29.98 in /  1015.1 hPa Calm   1.0 mph /  1.6 km/h 80 % 0.01 in /  0.25 mm
02:30 67.9 °F /  19.9 °C 61.5 °F /  16.4 °C 29.97 in /  1014.8 hPa Calm     80 % 0.01 in /  0.25 mm
02:35 67.7 °F /  19.8 °C 61.6 °F /  16.4 °C 29.97 in /  1014.8 hPa Calm   1.0 mph /  1.6 km/h 81 % 0.00 in /  0 mm
02:41 67.4 °F /  19.7 °C 61.7 °F /  16.5 °C 29.98 in /  1015.1 hPa Calm   2.0 mph /  3.2 km/h 82 % 0.00 in /  0 mm
02:45 66.8 °F /  19.3 °C 61.1 °F /  16.2 °C 29.98 in /  1015.1 hPa Calm   1.0 mph /  1.6 km/h 82 % 0.00 in /  0 mm
02:50 66.4 °F /  19.1 °C 60.7 °F /  15.9 °C 29.97 in /  1014.8 hPa Calm   1.0 mph /  1.6 km/h 82 % 0.00 in /  0 mm
02:55 66.0 °F /  18.9 °C 60.0 °F /  15.6 °C 29.97 in /  1014.8 hPa Calm     81 % 0.00 in /  0 mm
03:01 65.7 °F /  18.7 °C 60.1 °F /  15.6 °C 29.97 in /  1014.8 hPa SSW 1.1 mph /  1.8 km/h 1.2 mph /  1.9 km/h 82 % 0.03 in /  0.76 mm
03:06 65.3 °F /  18.5 °C 59.7 °F /  15.4 °C 29.97 in /  1014.8 hPa Calm     82 % 0.03 in /  0.76 mm
03:11 65.0 °F /  18.3 °C 59.7 °F /  15.4 °C 29.97 in /  1014.8 hPa Calm     83 % 0.03 in /  0.76 mm
03:16 64.7 °F /  18.2 °C 60.1 °F /  15.6 °C 29.97 in /  1014.8 hPa Calm     85 % 0.04 in /  1.02 mm
03:21 64.4 °F /  18 °C 59.8 °F /  15.4 °C 29.97 in /  1014.8 hPa Calm     85 % 0.04 in /  1.02 mm
03:26 64.2 °F /  17.9 °C 59.9 °F /  15.5 °C 29.96 in /  1014.4 hPa Calm     86 % 0.03 in /  0.76 mm
03:31 64.0 °F /  17.8 °C 59.7 °F /  15.4 °C 29.96 in /  1014.4 hPa Calm   1.2 mph /  1.9 km/h 86 % 0.03 in /  0.76 mm
03:36 63.8 °F /  17.7 °C 59.9 °F /  15.5 °C 29.96 in /  1014.4 hPa Calm     87 % 0.03 in /  0.76 mm
03:41 63.7 °F /  17.6 °C 60.1 °F /  15.6 °C 29.96 in /  1014.4 hPa Calm     88 % 0.02 in /  0.51 mm
03:46 63.5 °F /  17.5 °C 59.9 °F /  15.5 °C 29.96 in /  1014.4 hPa Calm     88 % 0.02 in /  0.51 mm
03:51 63.4 °F /  17.4 °C 59.8 °F /  15.4 °C 29.95 in /  1014.1 hPa Calm     88 % 0.02 in /  0.51 mm
03:56 63.2 °F /  17.3 °C 60.2 °F /  15.7 °C 29.95 in /  1014.1 hPa Calm   1.2 mph /  1.9 km/h 90 % 0.02 in /  0.51 mm
04:01 63.2 °F /  17.3 °C 60.2 °F /  15.7 °C 29.93 in /  1013.4 hPa SSW 0.2 mph /  0.3 km/h 1.2 mph /  1.9 km/h 90 % 0.02 in /  0.51 mm
04:06 63.1 °F /  17.3 °C 60.4 °F /  15.8 °C 29.93 in /  1013.4 hPa Calm   1.2 mph /  1.9 km/h 91 % 0.02 in /  0.51 mm
04:11 63.0 °F /  17.2 °C 60.3 °F /  15.7 °C 29.93 in /  1013.4 hPa Calm     91 % 0.02 in /  0.51 mm
04:16 62.9 °F /  17.2 °C 60.2 °F /  15.7 °C 29.92 in /  1013.1 hPa Calm     91 % 0.01 in /  0.25 mm
04:21 62.8 °F /  17.1 °C 60.1 °F /  15.6 °C 29.92 in /  1013.1 hPa Calm     91 % 0.01 in /  0.25 mm
04:26 62.7 °F /  17.1 °C 60.0 °F /  15.6 °C 29.92 in /  1013.1 hPa Calm   1.2 mph /  1.9 km/h 91 % 0.01 in /  0.25 mm
04:31 62.7 °F /  17.1 °C 60.3 °F /  15.7 °C 29.92 in /  1013.1 hPa Calm     92 % 0.00 in /  0 mm
04:36 62.6 °F /  17 °C 60.2 °F /  15.7 °C 29.91 in /  1012.8 hPa SSE 1.1 mph /  1.8 km/h 2.3 mph /  3.7 km/h 92 % 0.00 in /  0 mm
04:41 62.7 °F /  17.1 °C 60.6 °F /  15.9 °C 29.91 in /  1012.8 hPa SSE 0.6 mph /  1 km/h 3.5 mph /  5.6 km/h 93 % 0.00 in /  0 mm
04:46 62.8 °F /  17.1 °C 60.7 °F /  15.9 °C 29.91 in /  1012.8 hPa SSE 0.9 mph /  1.4 km/h 2.3 mph /  3.7 km/h 93 % 0.00 in /  0 mm
04:51 62.9 °F /  17.2 °C 60.8 °F /  16 °C 29.91 in /  1012.8 hPa SSE 0.4 mph /  0.6 km/h 2.3 mph /  3.7 km/h 93 % 0.00 in /  0 mm
04:56 62.9 °F /  17.2 °C 60.8 °F /  16 °C 29.91 in /  1012.8 hPa Calm     93 % 0.00 in /  0 mm
05:01 62.9 °F /  17.2 °C 60.8 °F /  16 °C 29.91 in /  1012.8 hPa Calm     93 % 0.00 in /  0 mm
05:06 62.9 °F /  17.2 °C 60.8 °F /  16 °C 29.91 in /  1012.8 hPa Calm     93 % 0.00 in /  0 mm
05:11 63.0 °F /  17.2 °C 61.2 °F /  16.2 °C 29.91 in /  1012.8 hPa Calm     94 % 0.00 in /  0 mm
05:16 63.1 °F /  17.3 °C 61.3 °F /  16.3 °C 29.91 in /  1012.8 hPa Calm     94 % 0.00 in /  0 mm
05:21 63.1 °F /  17.3 °C 61.3 °F /  16.3 °C 29.92 in /  1013.1 hPa Calm     94 % 0.00 in /  0 mm
05:26 63.2 °F /  17.3 °C 61.4 °F /  16.3 °C 29.91 in /  1012.8 hPa Calm     94 % 0.00 in /  0 mm
05:31 63.3 °F /  17.4 °C 61.5 °F /  16.4 °C 29.91 in /  1012.8 hPa Calm     94 % 0.00 in /  0 mm
05:36 63.4 °F /  17.4 °C 61.6 °F /  16.4 °C 29.91 in /  1012.8 hPa Calm   1.2 mph /  1.9 km/h 94 % 0.00 in /  0 mm
05:41 63.4 °F /  17.4 °C 61.6 °F /  16.4 °C 29.92 in /  1013.1 hPa Calm     94 % 0.00 in /  0 mm
05:46 63.5 °F /  17.5 °C 61.7 °F /  16.5 °C 29.92 in /  1013.1 hPa Calm     94 % 0.00 in /  0 mm
05:51 63.5 °F /  17.5 °C 61.7 °F /  16.5 °C 29.91 in /  1012.8 hPa Calm     94 % 0.00 in /  0 mm
05:56 63.5 °F /  17.5 °C 61.7 °F /  16.5 °C 29.92 in /  1013.1 hPa Calm     94 % 0.00 in /  0 mm
06:01 63.6 °F /  17.6 °C 61.8 °F /  16.6 °C 29.92 in /  1013.1 hPa Calm     94 % 0.00 in /  0 mm
06:06 63.5 °F /  17.5 °C 61.7 °F /  16.5 °C 29.92 in /  1013.1 hPa Calm     94 % 0.00 in /  0 mm
06:11 63.6 °F /  17.6 °C 61.8 °F /  16.6 °C 29.92 in /  1013.1 hPa SSE 0.2 mph /  0.3 km/h 1.0 mph /  1.6 km/h 94 % 0.00 in /  0 mm
06:16 63.6 °F /  17.6 °C 61.8 °F /  16.6 °C 29.92 in /  1013.1 hPa Calm   1.2 mph /  1.9 km/h 94 % 0.00 in /  0 mm
06:21 63.6 °F /  17.6 °C 61.8 °F /  16.6 °C 29.92 in /  1013.1 hPa Calm     94 % 0.00 in /  0 mm
06:26 63.6 °F /  17.6 °C 61.8 °F /  16.6 °C 29.93 in /  1013.4 hPa Calm     94 % 0.00 in /  0 mm
06:32 63.7 °F /  17.6 °C 61.9 °F /  16.6 °C 29.92 in /  1013.1 hPa Calm   1.2 mph /  1.9 km/h 94 % 0.00 in /  0 mm
06:37 63.7 °F /  17.6 °C 61.9 °F /  16.6 °C 29.92 in /  1013.1 hPa Calm     94 % 0.00 in /  0 mm
06:42 63.7 °F /  17.6 °C 61.9 °F /  16.6 °C 29.92 in /  1013.1 hPa Calm     94 % 0.00 in /  0 mm
06:47 63.8 °F /  17.7 °C 62.0 °F /  16.7 °C 29.93 in /  1013.4 hPa Calm     94 % 0.00 in /  0 mm
06:52 63.8 °F /  17.7 °C 62.0 °F /  16.7 °C 29.93 in /  1013.4 hPa Calm     94 % 0.00 in /  0 mm
06:57 63.9 °F /  17.7 °C 62.1 °F /  16.7 °C 29.92 in /  1013.1 hPa Calm     94 % 0.00 in /  0 mm
07:02 63.9 °F /  17.7 °C 62.1 °F /  16.7 °C 29.92 in /  1013.1 hPa Calm     94 % 0.00 in /  0 mm
07:07 63.9 °F /  17.7 °C 62.1 °F /  16.7 °C 29.92 in /  1013.1 hPa Calm   1.0 mph /  1.6 km/h 94 % 0.00 in /  0 mm
07:12 63.9 °F /  17.7 °C 62.1 °F /  16.7 °C 29.92 in /  1013.1 hPa Calm   1.2 mph /  1.9 km/h 94 % 0.00 in /  0 mm
07:17 64.0 °F /  17.8 °C 62.2 °F /  16.8 °C 29.92 in /  1013.1 hPa Calm   1.2 mph /  1.9 km/h 94 % 0.00 in /  0 mm
07:22 64.1 °F /  17.8 °C 62.3 °F /  16.8 °C 29.92 in /  1013.1 hPa SSE 0.1 mph /  0.2 km/h 1.2 mph /  1.9 km/h 94 % 0.00 in /  0 mm
07:27 64.1 °F /  17.8 °C 62.3 °F /  16.8 °C 29.92 in /  1013.1 hPa Calm     94 % 0.00 in /  0 mm
07:32 64.3 °F /  17.9 °C 62.5 °F /  16.9 °C 29.92 in /  1013.1 hPa Calm     94 % 0.00 in /  0 mm
07:37 64.4 °F /  18 °C 62.6 °F /  17 °C 29.91 in /  1012.8 hPa Calm     94 % 0.00 in /  0 mm
07:42 64.4 °F /  18 °C 62.6 °F /  17 °C 29.91 in /  1012.8 hPa Calm   1.2 mph /  1.9 km/h 94 % 0.00 in /  0 mm
07:47 64.5 °F /  18.1 °C 62.7 °F /  17.1 °C 29.91 in /  1012.8 hPa Calm     94 % 0.00 in /  0 mm
07:52 64.5 °F /  18.1 °C 62.4 °F /  16.9 °C 29.92 in /  1013.1 hPa Calm     93 % 0.00 in /  0 mm
07:57 64.7 °F /  18.2 °C 62.9 °F /  17.2 °C 29.91 in /  1012.8 hPa Calm   1.2 mph /  1.9 km/h 94 % 0.00 in /  0 mm
08:02 64.9 °F /  18.3 °C 63.1 °F /  17.3 °C 29.91 in /  1012.8 hPa Calm   1.2 mph /  1.9 km/h 94 % 0.00 in /  0 mm
08:07 65.0 °F /  18.3 °C 62.9 °F /  17.2 °C 29.91 in /  1012.8 hPa SE 0.6 mph /  1 km/h 2.3 mph /  3.7 km/h 93 % 0.00 in /  0 mm
08:12 65.2 °F /  18.4 °C 63.4 °F /  17.4 °C 29.91 in /  1012.8 hPa Calm   1.2 mph /  1.9 km/h 94 % 0.00 in /  0 mm
08:17 65.4 °F /  18.6 °C 63.3 °F /  17.4 °C 29.91 in /  1012.8 hPa Calm   3.5 mph /  5.6 km/h 93 % 0.00 in /  0 mm
08:22 65.4 °F /  18.6 °C 63.3 °F /  17.4 °C 29.91 in /  1012.8 hPa Calm   2.3 mph /  3.7 km/h 93 % 0.00 in /  0 mm
08:27 65.6 °F /  18.7 °C 63.5 °F /  17.5 °C 29.91 in /  1012.8 hPa SE 0.3 mph /  0.5 km/h 3.5 mph /  5.6 km/h 93 % 0.00 in /  0 mm
08:32 65.8 °F /  18.8 °C 63.7 °F /  17.6 °C 29.91 in /  1012.8 hPa Calm   1.2 mph /  1.9 km/h 93 % 0.00 in /  0 mm
08:38 66.1 °F /  18.9 °C 64.0 °F /  17.8 °C 29.91 in /  1012.8 hPa Calm   1.2 mph /  1.9 km/h 93 % 0.00 in /  0 mm
08:43 66.3 °F /  19.1 °C 64.2 °F /  17.9 °C 29.91 in /  1012.8 hPa Calm     93 % 0.00 in /  0 mm
08:48 66.4 °F /  19.1 °C 64.0 °F /  17.8 °C 29.91 in /  1012.8 hPa Calm     92 % 0.00 in /  0 mm
08:53 66.6 °F /  19.2 °C 64.2 °F /  17.9 °C 29.91 in /  1012.8 hPa Calm     92 % 0.00 in /  0 mm
08:58 66.7 °F /  19.3 °C 64.3 °F /  17.9 °C 29.91 in /  1012.8 hPa Calm     92 % 0.00 in /  0 mm
09:03 66.9 °F /  19.4 °C 64.2 °F /  17.9 °C 29.91 in /  1012.8 hPa SE 0.4 mph /  0.6 km/h 3.5 mph /  5.6 km/h 91 % 0.00 in /  0 mm
09:08 67.1 °F /  19.5 °C 64.7 °F /  18.2 °C 29.91 in /  1012.8 hPa Calm   2.3 mph /  3.7 km/h 92 % 0.00 in /  0 mm
09:13 67.4 °F /  19.7 °C 65.0 °F /  18.3 °C 29.91 in /  1012.8 hPa SE 0.2 mph /  0.3 km/h 1.2 mph /  1.9 km/h 92 % 0.00 in /  0 mm
09:18 67.6 °F /  19.8 °C 64.9 °F /  18.3 °C 29.91 in /  1012.8 hPa Calm     91 % 0.00 in /  0 mm
09:23 67.8 °F /  19.9 °C 65.1 °F /  18.4 °C 29.92 in /  1013.1 hPa Calm   1.2 mph /  1.9 km/h 91 % 0.00 in /  0 mm
09:28 67.9 °F /  19.9 °C 65.2 °F /  18.4 °C 29.91 in /  1012.8 hPa Calm   1.2 mph /  1.9 km/h 91 % 0.00 in /  0 mm
09:33 68.3 °F /  20.2 °C 65.9 °F /  18.8 °C 29.91 in /  1012.8 hPa SE 0.1 mph /  0.2 km/h 1.2 mph /  1.9 km/h 92 % 0.00 in /  0 mm
09:38 68.5 °F /  20.3 °C 65.4 °F /  18.6 °C 29.91 in /  1012.8 hPa SE 1.2 mph /  1.9 km/h 2.3 mph /  3.7 km/h 90 % 0.00 in /  0 mm
09:43 68.5 °F /  20.3 °C 65.1 °F /  18.4 °C 29.91 in /  1012.8 hPa Calm   2.3 mph /  3.7 km/h 89 % 0.00 in /  0 mm
09:48 68.6 °F /  20.3 °C 65.2 °F /  18.4 °C 29.91 in /  1012.8 hPa SE 3.4 mph /  5.5 km/h 5.8 mph /  9.3 km/h 89 % 0.00 in /  0 mm
09:53 68.9 °F /  20.5 °C 65.8 °F /  18.8 °C 29.91 in /  1012.8 hPa SE 0.2 mph /  0.3 km/h 1.2 mph /  1.9 km/h 90 % 0.00 in /  0 mm
09:58 69.6 °F /  20.9 °C 66.9 °F /  19.4 °C 29.91 in /  1012.8 hPa SE 0.1 mph /  0.2 km/h 1.2 mph /  1.9 km/h 91 % 0.00 in /  0 mm
10:03 70.5 °F /  21.4 °C 67.4 °F /  19.7 °C 29.91 in /  1012.8 hPa Calm   1.2 mph /  1.9 km/h 90 % 0.00 in /  0 mm
10:08 71.6 °F /  22 °C 68.2 °F /  20.1 °C 29.90 in /  1012.4 hPa SE 0.6 mph /  1 km/h 2.3 mph /  3.7 km/h 89 % 0.00 in /  0 mm
10:13 72.3 °F /  22.4 °C 68.2 °F /  20.1 °C 29.91 in /  1012.8 hPa SE 0.6 mph /  1 km/h 1.2 mph /  1.9 km/h 87 % 0.00 in /  0 mm
10:18 73.2 °F /  22.9 °C 69.4 °F /  20.8 °C 29.91 in /  1012.8 hPa SE 0.1 mph /  0.2 km/h 1.2 mph /  1.9 km/h 88 % 0.00 in /  0 mm
10:23 73.9 °F /  23.3 °C 68.8 °F /  20.4 °C 29.91 in /  1012.8 hPa NE 1.2 mph /  1.9 km/h 3.5 mph /  5.6 km/h 84 % 0.00 in /  0 mm
10:28 74.1 °F /  23.4 °C 68.6 °F /  20.3 °C 29.91 in /  1012.8 hPa SE 0.1 mph /  0.2 km/h 1.2 mph /  1.9 km/h 83 % 0.00 in /  0 mm
10:33 74.1 °F /  23.4 °C 67.9 °F /  19.9 °C 29.90 in /  1012.4 hPa Calm   1.2 mph /  1.9 km/h 81 % 0.00 in /  0 mm
10:38 74.0 °F /  23.3 °C 67.4 °F /  19.7 °C 29.90 in /  1012.4 hPa Calm   1.2 mph /  1.9 km/h 80 % 0.00 in /  0 mm
10:43 73.8 °F /  23.2 °C 67.6 °F /  19.8 °C 29.91 in /  1012.8 hPa Calm   1.2 mph /  1.9 km/h 81 % 0.00 in /  0 mm
10:48 73.6 °F /  23.1 °C 67.4 °F /  19.7 °C 29.91 in /  1012.8 hPa East 0.5 mph /  0.8 km/h 2.0 mph /  3.2 km/h 81 % 0.00 in /  0 mm
10:53 73.4 °F /  23 °C 67.6 °F /  19.8 °C 29.91 in /  1012.8 hPa North 3.2 mph /  5.1 km/h 4.0 mph /  6.4 km/h 82 % 0.00 in /  0 mm
10:58 73.3 °F /  22.9 °C 67.5 °F /  19.7 °C 29.91 in /  1012.8 hPa NNE 3.8 mph /  6.1 km/h 4.6 mph /  7.4 km/h 82 % 0.00 in /  0 mm
11:03 73.0 °F /  22.8 °C 67.2 °F /  19.6 °C 29.90 in /  1012.4 hPa NE 1.1 mph /  1.8 km/h 4.6 mph /  7.4 km/h 82 % 0.00 in /  0 mm
11:08 72.8 °F /  22.7 °C 67.3 °F /  19.6 °C 29.90 in /  1012.4 hPa NNE 0.5 mph /  0.8 km/h 2.3 mph /  3.7 km/h 83 % 0.00 in /  0 mm
11:13 72.8 °F /  22.7 °C 67.3 °F /  19.6 °C 29.90 in /  1012.4 hPa NNE 0.4 mph /  0.6 km/h 2.3 mph /  3.7 km/h 83 % 0.00 in /  0 mm
11:18 72.9 °F /  22.7 °C 67.4 °F /  19.7 °C 29.90 in /  1012.4 hPa NNE 0.2 mph /  0.3 km/h   83 % 0.00 in /  0 mm
11:23 73.0 °F /  22.8 °C 67.9 °F /  19.9 °C 29.90 in /  1012.4 hPa Calm     84 % 0.00 in /  0 mm
11:29 73.1 °F /  22.8 °C 67.6 °F /  19.8 °C 29.90 in /  1012.4 hPa NNE 0.7 mph /  1.1 km/h 3.5 mph /  5.6 km/h 83 % 0.00 in /  0 mm
11:33 73.1 °F /  22.8 °C 67.6 °F /  19.8 °C 29.90 in /  1012.4 hPa NNE 1.8 mph /  2.9 km/h 3.5 mph /  5.6 km/h 83 % 0.00 in /  0 mm
11:39 73.3 °F /  22.9 °C 67.8 °F /  19.9 °C 29.90 in /  1012.4 hPa North 1.5 mph /  2.4 km/h 3.5 mph /  5.6 km/h 83 % 0.00 in /  0 mm
11:44 73.4 °F /  23 °C 68.3 °F /  20.2 °C 29.90 in /  1012.4 hPa Calm   1.0 mph /  1.6 km/h 84 % 0.00 in /  0 mm
11:49 73.5 °F /  23.1 °C 67.7 °F /  19.8 °C 29.90 in /  1012.4 hPa North 0.7 mph /  1.1 km/h 3.5 mph /  5.6 km/h 82 % 0.00 in /  0 mm
11:54 73.4 °F /  23 °C 67.6 °F /  19.8 °C 29.90 in /  1012.4 hPa North 1.0 mph /  1.6 km/h 3.5 mph /  5.6 km/h 82 % 0.00 in /  0 mm
11:59 73.3 °F /  22.9 °C 67.5 °F /  19.7 °C 29.91 in /  1012.8 hPa North 1.4 mph /  2.3 km/h 3.5 mph /  5.6 km/h 82 % 0.00 in /  0 mm
12:04 73.2 °F /  22.9 °C 67.4 °F /  19.7 °C 29.90 in /  1012.4 hPa NNE 0.9 mph /  1.4 km/h 3.5 mph /  5.6 km/h 82 % 0.00 in /  0 mm
12:09 73.1 °F /  22.8 °C 67.3 °F /  19.6 °C 29.91 in /  1012.8 hPa NNE 1.2 mph /  1.9 km/h 3.0 mph /  4.8 km/h 82 % 0.00 in /  0 mm
12:14 72.9 °F /  22.7 °C 67.1 °F /  19.5 °C 29.91 in /  1012.8 hPa NNE 0.7 mph /  1.1 km/h 2.3 mph /  3.7 km/h 82 % 0.00 in /  0 mm
12:19 72.8 °F /  22.7 °C 67.0 °F /  19.4 °C 29.91 in /  1012.8 hPa NNE 0.6 mph /  1 km/h 2.3 mph /  3.7 km/h 82 % 0.00 in /  0 mm
12:24 72.7 °F /  22.6 °C 67.2 °F /  19.6 °C 29.91 in /  1012.8 hPa NNE 0.2 mph /  0.3 km/h 3.5 mph /  5.6 km/h 83 % 0.00 in /  0 mm
12:29 72.4 °F /  22.4 °C 66.9 °F /  19.4 °C 29.91 in /  1012.8 hPa NE 1.3 mph /  2.1 km/h 2.3 mph /  3.7 km/h 83 % 0.00 in /  0 mm
12:34 72.2 °F /  22.3 °C 66.7 °F /  19.3 °C 29.90 in /  1012.4 hPa NNE 0.5 mph /  0.8 km/h 4.0 mph /  6.4 km/h 83 % 0.00 in /  0 mm
12:39 72.1 °F /  22.3 °C 67.0 °F /  19.4 °C 29.90 in /  1012.4 hPa Calm     84 % 0.00 in /  0 mm
12:44 72.0 °F /  22.2 °C 66.9 °F /  19.4 °C 29.90 in /  1012.4 hPa Calm     84 % 0.00 in /  0 mm
12:49 72.0 °F /  22.2 °C 66.9 °F /  19.4 °C 29.89 in /  1012.1 hPa NNE 0.3 mph /  0.5 km/h 1.2 mph /  1.9 km/h 84 % 0.00 in /  0 mm
12:54 72.0 °F /  22.2 °C 67.2 °F /  19.6 °C 29.89 in /  1012.1 hPa NNE 1.0 mph /  1.6 km/h 3.5 mph /  5.6 km/h 85 % 0.00 in /  0 mm
12:59 72.1 °F /  22.3 °C 67.3 °F /  19.6 °C 29.89 in /  1012.1 hPa NNE 0.3 mph /  0.5 km/h 1.2 mph /  1.9 km/h 85 % 0.00 in /  0 mm
13:04 72.2 °F /  22.3 °C 67.4 °F /  19.7 °C 29.89 in /  1012.1 hPa NE 2.7 mph /  4.3 km/h 4.6 mph /  7.4 km/h 85 % 0.00 in /  0 mm
13:09 72.6 °F /  22.6 °C 68.2 °F /  20.1 °C 29.89 in /  1012.1 hPa ENE 0.1 mph /  0.2 km/h 2.3 mph /  3.7 km/h 86 % 0.00 in /  0 mm
13:14 73.6 °F /  23.1 °C 69.2 °F /  20.7 °C 29.89 in /  1012.1 hPa NE 1.7 mph /  2.7 km/h 3.5 mph /  5.6 km/h 86 % 0.00 in /  0 mm
13:19 74.2 °F /  23.4 °C 69.1 °F /  20.6 °C 29.89 in /  1012.1 hPa North 2.9 mph /  4.7 km/h 3.5 mph /  5.6 km/h 84 % 0.00 in /  0 mm
13:24 74.3 °F /  23.5 °C 68.8 °F /  20.4 °C 29.89 in /  1012.1 hPa ENE 2.4 mph /  3.9 km/h 3.5 mph /  5.6 km/h 83 % 0.00 in /  0 mm
13:29 74.4 °F /  23.6 °C 68.5 °F /  20.3 °C 29.90 in /  1012.4 hPa Calm   3.5 mph /  5.6 km/h 82 % 0.00 in /  0 mm
13:34 74.4 °F /  23.6 °C 68.5 °F /  20.3 °C 29.89 in /  1012.1 hPa ENE 0.7 mph /  1.1 km/h 3.0 mph /  4.8 km/h 82 % 0.00 in /  0 mm
13:39 74.2 °F /  23.4 °C 68.3 °F /  20.2 °C 29.89 in /  1012.1 hPa NNE 1.5 mph /  2.4 km/h 4.0 mph /  6.4 km/h 82 % 0.00 in /  0 mm
13:44 74.1 °F /  23.4 °C 68.3 °F /  20.2 °C 29.89 in /  1012.1 hPa NNE 3.0 mph /  4.8 km/h 4.6 mph /  7.4 km/h 82 % 0.00 in /  0 mm
13:49 74.0 °F /  23.3 °C 68.2 °F /  20.1 °C 29.89 in /  1012.1 hPa NNE 1.4 mph /  2.3 km/h 3.5 mph /  5.6 km/h 82 % 0.00 in /  0 mm
13:54 73.9 °F /  23.3 °C 68.4 °F /  20.2 °C 29.89 in /  1012.1 hPa NNE 0.2 mph /  0.3 km/h 2.3 mph /  3.7 km/h 83 % 0.00 in /  0 mm
13:59 73.7 °F /  23.2 °C 68.2 °F /  20.1 °C 29.89 in /  1012.1 hPa NNE 0.8 mph /  1.3 km/h 2.3 mph /  3.7 km/h 83 % 0.00 in /  0 mm
14:04 73.6 °F /  23.1 °C 68.1 °F /  20.1 °C 29.89 in /  1012.1 hPa NNE 1.1 mph /  1.8 km/h 2.3 mph /  3.7 km/h 83 % 0.00 in /  0 mm
14:09 73.7 °F /  23.2 °C 68.6 °F /  20.3 °C 29.89 in /  1012.1 hPa North 2.2 mph /  3.5 km/h 4.6 mph /  7.4 km/h 84 % 0.00 in /  0 mm
14:14 73.7 °F /  23.2 °C 68.2 °F /  20.1 °C 29.89 in /  1012.1 hPa Calm   3.5 mph /  5.6 km/h 83 % 0.00 in /  0 mm
14:19 73.8 °F /  23.2 °C 68.7 °F /  20.4 °C 29.89 in /  1012.1 hPa NNE 0.8 mph /  1.3 km/h 2.3 mph /  3.7 km/h 84 % 0.00 in /  0 mm
14:24 73.8 °F /  23.2 °C 68.3 °F /  20.2 °C 29.89 in /  1012.1 hPa NNE 0.4 mph /  0.6 km/h 1.0 mph /  1.6 km/h 83 % 0.00 in /  0 mm
14:30 73.9 °F /  23.3 °C 68.8 °F /  20.4 °C 29.89 in /  1012.1 hPa NNE 0.1 mph /  0.2 km/h 1.2 mph /  1.9 km/h 84 % 0.00 in /  0 mm
14:35 74.0 °F /  23.3 °C 68.5 °F /  20.3 °C 29.89 in /  1012.1 hPa NE 0.4 mph /  0.6 km/h 3.5 mph /  5.6 km/h 83 % 0.00 in /  0 mm
14:40 74.0 °F /  23.3 °C 68.5 °F /  20.3 °C 29.88 in /  1011.7 hPa NE 0.6 mph /  1 km/h 2.0 mph /  3.2 km/h 83 % 0.00 in /  0 mm
14:45 74.1 °F /  23.4 °C 68.6 °F /  20.3 °C 29.88 in /  1011.7 hPa NE 2.7 mph /  4.3 km/h 3.5 mph /  5.6 km/h 83 % 0.00 in /  0 mm
14:50 74.3 °F /  23.5 °C 68.8 °F /  20.4 °C 29.88 in /  1011.7 hPa NE 1.8 mph /  2.9 km/h 2.3 mph /  3.7 km/h 83 % 0.00 in /  0 mm
14:55 74.5 °F /  23.6 °C 69.0 °F /  20.6 °C 29.88 in /  1011.7 hPa NNE 0.6 mph /  1 km/h 2.3 mph /  3.7 km/h 83 % 0.00 in /  0 mm
15:00 74.7 °F /  23.7 °C 68.8 °F /  20.4 °C 29.88 in /  1011.7 hPa NE 1.6 mph /  2.6 km/h 4.0 mph /  6.4 km/h 82 % 0.00 in /  0 mm
15:05 74.8 °F /  23.8 °C 68.9 °F /  20.5 °C 29.88 in /  1011.7 hPa NNE 0.9 mph /  1.4 km/h 2.3 mph /  3.7 km/h 82 % 0.00 in /  0 mm
15:10 74.8 °F /  23.8 °C 68.9 °F /  20.5 °C 29.88 in /  1011.7 hPa NNE 1.2 mph /  1.9 km/h 3.5 mph /  5.6 km/h 82 % 0.00 in /  0 mm
15:15 74.9 °F /  23.8 °C 69.0 °F /  20.6 °C 29.88 in /  1011.7 hPa NNE 0.1 mph /  0.2 km/h 2.3 mph /  3.7 km/h 82 % 0.00 in /  0 mm
15:20 74.9 °F /  23.8 °C 69.0 °F /  20.6 °C 29.88 in /  1011.7 hPa NNE 0.7 mph /  1.1 km/h 2.3 mph /  3.7 km/h 82 % 0.00 in /  0 mm
15:25 74.9 °F /  23.8 °C 69.0 °F /  20.6 °C 29.87 in /  1011.4 hPa ENE 0.3 mph /  0.5 km/h 3.5 mph /  5.6 km/h 82 % 0.00 in /  0 mm
15:30 74.8 °F /  23.8 °C 68.9 °F /  20.5 °C 29.87 in /  1011.4 hPa ENE 0.2 mph /  0.3 km/h 1.2 mph /  1.9 km/h 82 % 0.00 in /  0 mm
15:35 74.7 °F /  23.7 °C 68.8 °F /  20.4 °C 29.87 in /  1011.4 hPa ENE 0.2 mph /  0.3 km/h 1.2 mph /  1.9 km/h 82 % 0.00 in /  0 mm
15:40 74.6 °F /  23.7 °C 68.7 °F /  20.4 °C 29.87 in /  1011.4 hPa Calm   1.2 mph /  1.9 km/h 82 % 0.00 in /  0 mm
15:45 74.5 °F /  23.6 °C 69.0 °F /  20.6 °C 29.87 in /  1011.4 hPa ENE 0.2 mph /  0.3 km/h 1.2 mph /  1.9 km/h 83 % 0.00 in /  0 mm
15:50 74.5 °F /  23.6 °C 69.0 °F /  20.6 °C 29.87 in /  1011.4 hPa Calm   1.0 mph /  1.6 km/h 83 % 0.00 in /  0 mm
15:55 74.5 °F /  23.6 °C 69.0 °F /  20.6 °C 29.87 in /  1011.4 hPa Calm     83 % 0.00 in /  0 mm
16:00 74.5 °F /  23.6 °C 69.0 °F /  20.6 °C 29.86 in /  1011.1 hPa Calm   1.2 mph /  1.9 km/h 83 % 0.00 in /  0 mm
16:05 74.5 °F /  23.6 °C 69.3 °F /  20.7 °C 29.86 in /  1011.1 hPa Calm     84 % 0.00 in /  0 mm
16:10 74.4 °F /  23.6 °C 68.9 °F /  20.5 °C 29.86 in /  1011.1 hPa Calm     83 % 0.00 in /  0 mm
16:14 74.5 °F /  23.6 °C 69.3 °F /  20.7 °C 29.86 in /  1011.1 hPa Calm     84 % 0.00 in /  0 mm
16:19 74.6 °F /  23.7 °C 69.4 °F /  20.8 °C 29.85 in /  1010.7 hPa NE 0.3 mph /  0.5 km/h 2.3 mph /  3.7 km/h 84 % 0.00 in /  0 mm
16:24 74.7 °F /  23.7 °C 69.5 °F /  20.8 °C 29.85 in /  1010.7 hPa Calm     84 % 0.00 in /  0 mm
16:30 74.8 °F /  23.8 °C 69.6 °F /  20.9 °C 29.85 in /  1010.7 hPa NE 0.1 mph /  0.2 km/h   84 % 0.00 in /  0 mm
16:40 75.1 °F /  23.9 °C 70.3 °F /  21.3 °C 29.85 in /  1010.7 hPa Calm     85 % 0.00 in /  0 mm
16:45 75.1 °F /  23.9 °C 69.9 °F /  21.1 °C 29.85 in /  1010.7 hPa NE 0.1 mph /  0.2 km/h 1.2 mph /  1.9 km/h 84 % 0.00 in /  0 mm
16:50 75.2 °F /  24 °C 69.7 °F /  20.9 °C 29.85 in /  1010.7 hPa Calm   1.2 mph /  1.9 km/h 83 % 0.00 in /  0 mm
16:55 75.3 °F /  24.1 °C 70.1 °F /  21.2 °C 29.84 in /  1010.4 hPa Calm   1.2 mph /  1.9 km/h 84 % 0.00 in /  0 mm
17:00 75.4 °F /  24.1 °C 70.2 °F /  21.2 °C 29.85 in /  1010.7 hPa Calm     84 % 0.00 in /  0 mm
17:05 75.6 °F /  24.2 °C 70.4 °F /  21.3 °C 29.85 in /  1010.7 hPa Calm     84 % 0.00 in /  0 mm
17:10 75.7 °F /  24.3 °C 70.5 °F /  21.4 °C 29.85 in /  1010.7 hPa NE 0.1 mph /  0.2 km/h   84 % 0.00 in /  0 mm
17:15 75.7 °F /  24.3 °C 70.5 °F /  21.4 °C 29.85 in /  1010.7 hPa Calm     84 % 0.00 in /  0 mm
17:21 75.7 °F /  24.3 °C 70.2 °F /  21.2 °C 29.85 in /  1010.7 hPa Calm     83 % 0.00 in /  0 mm
17:26 75.8 °F /  24.3 °C 70.6 °F /  21.4 °C 29.85 in /  1010.7 hPa Calm     84 % 0.00 in /  0 mm
17:36 75.8 °F /  24.3 °C 70.6 °F /  21.4 °C 29.85 in /  1010.7 hPa Calm   1.0 mph /  1.6 km/h 84 % 0.00 in /  0 mm
17:41 75.7 °F /  24.3 °C 70.5 °F /  21.4 °C 29.83 in /  1010 hPa Calm     84 % 0.00 in /  0 mm
17:46 75.7 °F /  24.3 °C 70.5 °F /  21.4 °C 29.83 in /  1010 hPa Calm     84 % 0.00 in /  0 mm
17:51 75.6 °F /  24.2 °C 70.8 °F /  21.6 °C 29.82 in /  1009.7 hPa Calm   1.0 mph /  1.6 km/h 85 % 0.00 in /  0 mm
17:56 75.5 °F /  24.2 °C 70.7 °F /  21.5 °C 29.82 in /  1009.7 hPa NE 0.1 mph /  0.2 km/h   85 % 0.00 in /  0 mm
18:01 75.4 °F /  24.1 °C 70.6 °F /  21.4 °C 29.83 in /  1010 hPa Calm     85 % 0.00 in /  0 mm
18:06 75.4 °F /  24.1 °C 70.6 °F /  21.4 °C 29.82 in /  1009.7 hPa Calm     85 % 0.00 in /  0 mm
18:11 75.4 °F /  24.1 °C 70.6 °F /  21.4 °C 29.83 in /  1010 hPa Calm     85 % 0.00 in /  0 mm
18:16 75.3 °F /  24.1 °C 70.5 °F /  21.4 °C 29.83 in /  1010 hPa Calm   1.2 mph /  1.9 km/h 85 % 0.00 in /  0 mm
18:21 75.3 °F /  24.1 °C 70.1 °F /  21.2 °C 29.83 in /  1010 hPa SE 0.5 mph /  0.8 km/h 3.5 mph /  5.6 km/h 84 % 0.00 in /  0 mm
18:26 75.3 °F /  24.1 °C 70.1 °F /  21.2 °C 29.83 in /  1010 hPa Calm   1.2 mph /  1.9 km/h 84 % 0.00 in /  0 mm
18:31 75.4 °F /  24.1 °C 69.9 °F /  21.1 °C 29.83 in /  1010 hPa SE 1.0 mph /  1.6 km/h 3.5 mph /  5.6 km/h 83 % 0.00 in /  0 mm
18:36 75.4 °F /  24.1 °C 70.2 °F /  21.2 °C 29.83 in /  1010 hPa SE 0.7 mph /  1.1 km/h 2.3 mph /  3.7 km/h 84 % 0.00 in /  0 mm
18:41 75.5 °F /  24.2 °C 70.0 °F /  21.1 °C 29.83 in /  1010 hPa SE 2.3 mph /  3.7 km/h 3.5 mph /  5.6 km/h 83 % 0.00 in /  0 mm
18:46 75.4 °F /  24.1 °C 69.9 °F /  21.1 °C 29.83 in /  1010 hPa SE 3.1 mph /  5 km/h 4.6 mph /  7.4 km/h 83 % 0.00 in /  0 mm
18:51 75.3 °F /  24.1 °C 69.8 °F /  21 °C 29.83 in /  1010 hPa Calm     83 % 0.00 in /  0 mm
18:56 75.2 °F /  24 °C 70.0 °F /  21.1 °C 29.84 in /  1010.4 hPa Calm   1.2 mph /  1.9 km/h 84 % 0.00 in /  0 mm
19:01 75.2 °F /  24 °C 70.0 °F /  21.1 °C 29.84 in /  1010.4 hPa Calm   1.2 mph /  1.9 km/h 84 % 0.00 in /  0 mm
19:06 75.1 °F /  23.9 °C 69.9 °F /  21.1 °C 29.84 in /  1010.4 hPa SE 0.4 mph /  0.6 km/h 2.3 mph /  3.7 km/h 84 % 0.00 in /  0 mm
19:11 74.9 °F /  23.8 °C 69.7 °F /  20.9 °C 29.84 in /  1010.4 hPa Calm     84 % 0.00 in /  0 mm
19:16 74.8 °F /  23.8 °C 70.0 °F /  21.1 °C 29.84 in /  1010.4 hPa SE 0.1 mph /  0.2 km/h 1.2 mph /  1.9 km/h 85 % 0.00 in /  0 mm
19:21 74.6 °F /  23.7 °C 69.8 °F /  21 °C 29.84 in /  1010.4 hPa SE 0.1 mph /  0.2 km/h 1.2 mph /  1.9 km/h 85 % 0.00 in /  0 mm
19:26 74.5 °F /  23.6 °C 69.7 °F /  20.9 °C 29.84 in /  1010.4 hPa SE 0.1 mph /  0.2 km/h 1.2 mph /  1.9 km/h 85 % 0.00 in /  0 mm
19:31 74.3 °F /  23.5 °C 69.5 °F /  20.8 °C 29.84 in /  1010.4 hPa SE 0.1 mph /  0.2 km/h 1.2 mph /  1.9 km/h 85 % 0.00 in /  0 mm
19:36 74.2 °F /  23.4 °C 69.7 °F /  20.9 °C 29.84 in /  1010.4 hPa SE 0.1 mph /  0.2 km/h 2.3 mph /  3.7 km/h 86 % 0.00 in /  0 mm
19:41 74.1 °F /  23.4 °C 69.6 °F /  20.9 °C 29.84 in /  1010.4 hPa SE 1.2 mph /  1.9 km/h 3.5 mph /  5.6 km/h 86 % 0.00 in /  0 mm
19:46 73.9 °F /  23.3 °C 69.4 °F /  20.8 °C 29.84 in /  1010.4 hPa SE 0.3 mph /  0.5 km/h 4.0 mph /  6.4 km/h 86 % 0.00 in /  0 mm
19:51 73.7 °F /  23.2 °C 69.6 °F /  20.9 °C 29.82 in /  1009.7 hPa SE 1.4 mph /  2.3 km/h 3.5 mph /  5.6 km/h 87 % 0.00 in /  0 mm
19:56 73.5 °F /  23.1 °C 69.4 °F /  20.8 °C 29.82 in /  1009.7 hPa SE 1.8 mph /  2.9 km/h 5.8 mph /  9.3 km/h 87 % 0.00 in /  0 mm
20:01 73.4 °F /  23 °C 69.6 °F /  20.9 °C 29.84 in /  1010.4 hPa Calm     88 % 0.00 in /  0 mm
20:05 73.4 °F /  23 °C 69.3 °F /  20.7 °C 29.84 in /  1010.4 hPa Calm   1.2 mph /  1.9 km/h 87 % 0.00 in /  0 mm
20:10 73.3 °F /  22.9 °C 69.5 °F /  20.8 °C 29.85 in /  1010.7 hPa SE 0.1 mph /  0.2 km/h 1.2 mph /  1.9 km/h 88 % 0.00 in /  0 mm
20:15 73.3 °F /  22.9 °C 69.5 °F /  20.8 °C 29.85 in /  1010.7 hPa SE 0.5 mph /  0.8 km/h 2.3 mph /  3.7 km/h 88 % 0.00 in /  0 mm
20:20 73.2 °F /  22.9 °C 69.4 °F /  20.8 °C 29.85 in /  1010.7 hPa SE 0.1 mph /  0.2 km/h   88 % 0.00 in /  0 mm
20:25 73.1 °F /  22.8 °C 69.7 °F /  20.9 °C 29.83 in /  1010 hPa SE 0.1 mph /  0.2 km/h 1.2 mph /  1.9 km/h 89 % 0.00 in /  0 mm
20:30 73.1 °F /  22.8 °C 69.7 °F /  20.9 °C 29.83 in /  1010 hPa SE 0.1 mph /  0.2 km/h 1.2 mph /  1.9 km/h 89 % 0.00 in /  0 mm
20:35 73.0 °F /  22.8 °C 69.6 °F /  20.9 °C 29.82 in /  1009.7 hPa SE 0.7 mph /  1.1 km/h 2.3 mph /  3.7 km/h 89 % 0.00 in /  0 mm
20:40 72.9 °F /  22.7 °C 69.5 °F /  20.8 °C 29.82 in /  1009.7 hPa SE 0.3 mph /  0.5 km/h 3.5 mph /  5.6 km/h 89 % 0.00 in /  0 mm
20:45 72.8 °F /  22.7 °C 69.7 °F /  20.9 °C 29.82 in /  1009.7 hPa SE 0.2 mph /  0.3 km/h 1.2 mph /  1.9 km/h 90 % 0.00 in /  0 mm
20:46 72.8 °F /  22.7 °C 69.7 °F /  20.9 °C 29.83 in /  1010 hPa SE 0.3 mph /  0.5 km/h 1.2 mph /  1.9 km/h 90 % 0.00 in /  0 mm
20:51 72.7 °F /  22.6 °C 69.6 °F /  20.9 °C 29.83 in /  1010 hPa Calm   3.0 mph /  4.8 km/h 90 % 0.00 in /  0 mm
20:56 72.7 °F /  22.6 °C 69.6 °F /  20.9 °C 29.83 in /  1010 hPa Calm   4.0 mph /  6.4 km/h 90 % 0.00 in /  0 mm
21:01 72.7 °F /  22.6 °C 69.6 °F /  20.9 °C 29.84 in /  1010.4 hPa SSE 0.1 mph /  0.2 km/h 5.8 mph /  9.3 km/h 90 % 0.00 in /  0 mm
21:06 72.6 °F /  22.6 °C 69.8 °F /  21 °C 29.84 in /  1010.4 hPa SSE 0.1 mph /  0.2 km/h 1.2 mph /  1.9 km/h 91 % 0.00 in /  0 mm
21:11 72.7 °F /  22.6 °C 69.9 °F /  21.1 °C 29.83 in /  1010 hPa SE 0.8 mph /  1.3 km/h 3.5 mph /  5.6 km/h 91 % 0.00 in /  0 mm
21:16 72.7 °F /  22.6 °C 69.9 °F /  21.1 °C 29.83 in /  1010 hPa SSE 3.4 mph /  5.5 km/h 3.5 mph /  5.6 km/h 91 % 0.00 in /  0 mm
21:21 72.7 °F /  22.6 °C 69.9 °F /  21.1 °C 29.82 in /  1009.7 hPa SE 1.5 mph /  2.4 km/h 3.5 mph /  5.6 km/h 91 % 0.00 in /  0 mm
21:26 72.7 °F /  22.6 °C 69.9 °F /  21.1 °C 29.83 in /  1010 hPa ESE 0.1 mph /  0.2 km/h 1.2 mph /  1.9 km/h 91 % 0.00 in /  0 mm
21:31 72.6 °F /  22.6 °C 70.2 °F /  21.2 °C 29.83 in /  1010 hPa Calm   3.0 mph /  4.8 km/h 92 % 0.00 in /  0 mm
21:36 72.6 °F /  22.6 °C 70.1 °F /  21.2 °C 29.83 in /  1010 hPa SE 2.0 mph /  3.2 km/h 7.0 mph /  11.3 km/h 92 % 0.00 in /  0 mm
21:41 72.6 °F /  22.6 °C 70.2 °F /  21.2 °C 29.83 in /  1010 hPa SE 1.0 mph /  1.6 km/h 5.0 mph /  8 km/h 92 % 0.00 in /  0 mm
21:46 72.7 °F /  22.6 °C 70.2 °F /  21.2 °C 29.83 in /  1010 hPa Calm   6.0 mph /  9.7 km/h 92 % 0.00 in /  0 mm
21:51 72.7 °F /  22.6 °C 70.2 °F /  21.2 °C 29.83 in /  1010 hPa South 1.0 mph /  1.6 km/h 5.0 mph /  8 km/h 92 % 0.00 in /  0 mm
21:56 72.8 °F /  22.7 °C 70.7 °F /  21.5 °C 29.83 in /  1010 hPa SW 0.7 mph /  1.1 km/h 2.3 mph /  3.7 km/h 93 % 0.00 in /  0 mm
22:01 72.8 °F /  22.7 °C 70.7 °F /  21.5 °C 29.83 in /  1010 hPa WSW 1.9 mph /  3.1 km/h 2.3 mph /  3.7 km/h 93 % 0.00 in /  0 mm
22:06 72.9 °F /  22.7 °C 70.8 °F /  21.6 °C 29.83 in /  1010 hPa South 1.0 mph /  1.6 km/h 5.0 mph /  8 km/h 93 % 0.00 in /  0 mm
22:11 72.9 °F /  22.7 °C 70.8 °F /  21.6 °C 29.82 in /  1009.7 hPa South 1.0 mph /  1.6 km/h 5.0 mph /  8 km/h 93 % 0.00 in /  0 mm
22:16 73.0 °F /  22.8 °C 70.5 °F /  21.4 °C 29.82 in /  1009.7 hPa Calm   3.0 mph /  4.8 km/h 92 % 0.00 in /  0 mm
22:21 73.0 °F /  22.8 °C 70.5 °F /  21.4 °C 29.82 in /  1009.7 hPa WSW 1.0 mph /  1.6 km/h 2.0 mph /  3.2 km/h 92 % 0.00 in /  0 mm
22:26 73.0 °F /  22.8 °C 70.5 °F /  21.4 °C 29.82 in /  1009.7 hPa West 1.0 mph /  1.6 km/h 5.0 mph /  8 km/h 92 % 0.00 in /  0 mm
22:31 73.1 °F /  22.8 °C 70.6 °F /  21.4 °C 29.82 in /  1009.7 hPa SW 1.0 mph /  1.6 km/h 3.0 mph /  4.8 km/h 92 % 0.00 in /  0 mm
22:36 73.1 °F /  22.8 °C 70.6 °F /  21.4 °C 29.83 in /  1010 hPa South 1.0 mph /  1.6 km/h 4.0 mph /  6.4 km/h 92 % 0.00 in /  0 mm
22:37 73.1 °F /  22.8 °C 70.6 °F /  21.4 °C 29.82 in /  1009.7 hPa SSW 1.2 mph /  1.9 km/h 3.5 mph /  5.6 km/h 92 % 0.00 in /  0 mm
22:42 73.1 °F /  22.8 °C 70.6 °F /  21.4 °C 29.82 in /  1009.7 hPa South 0.2 mph /  0.3 km/h 1.0 mph /  1.6 km/h 92 % 0.00 in /  0 mm
22:44 73.1 °F /  22.8 °C 70.6 °F /  21.4 °C 29.82 in /  1009.7 hPa SW 0.4 mph /  0.6 km/h 5.8 mph /  9.3 km/h 92 % 0.00 in /  0 mm
22:49 73.1 °F /  22.8 °C 70.6 °F /  21.4 °C 29.82 in /  1009.7 hPa SSE 0.4 mph /  0.6 km/h 2.3 mph /  3.7 km/h 92 % 0.00 in /  0 mm
22:54 73.0 °F /  22.8 °C 70.5 °F /  21.4 °C 29.82 in /  1009.7 hPa Calm   2.3 mph /  3.7 km/h 92 % 0.00 in /  0 mm
22:59 73.0 °F /  22.8 °C 70.5 °F /  21.4 °C 29.82 in /  1009.7 hPa SW 0.1 mph /  0.2 km/h 1.2 mph /  1.9 km/h 92 % 0.00 in /  0 mm
23:04 73.0 °F /  22.8 °C 70.5 °F /  21.4 °C 29.82 in /  1009.7 hPa SSW 1.3 mph /  2.1 km/h 3.5 mph /  5.6 km/h 92 % 0.00 in /  0 mm
23:09 73.0 °F /  22.8 °C 70.9 °F /  21.6 °C 29.82 in /  1009.7 hPa WSW 0.9 mph /  1.4 km/h 3.5 mph /  5.6 km/h 93 % 0.00 in /  0 mm
23:14 73.1 °F /  22.8 °C 71.0 °F /  21.7 °C 29.81 in /  1009.4 hPa SW 0.5 mph /  0.8 km/h 5.8 mph /  9.3 km/h 93 % 0.00 in /  0 mm
23:19 73.1 °F /  22.8 °C 71.0 °F /  21.7 °C 29.82 in /  1009.7 hPa SSW 0.7 mph /  1.1 km/h 1.2 mph /  1.9 km/h 93 % 0.00 in /  0 mm
23:23 73.1 °F /  22.8 °C 71.0 °F /  21.7 °C 29.82 in /  1009.7 hPa SW 0.8 mph /  1.3 km/h 3.0 mph /  4.8 km/h 93 % 0.00 in /  0 mm
23:27 73.1 °F /  22.8 °C 71.0 °F /  21.7 °C 29.82 in /  1009.7 hPa WSW 1.0 mph /  1.6 km/h 3.5 mph /  5.6 km/h 93 % 0.00 in /  0 mm
23:29 73.1 °F /  22.8 °C 71.0 °F /  21.7 °C 29.82 in /  1009.7 hPa SE 0.1 mph /  0.2 km/h 2.3 mph /  3.7 km/h 93 % 0.00 in /  0 mm
23:32 73.2 °F /  22.9 °C 71.1 °F /  21.7 °C 29.82 in /  1009.7 hPa SW 0.5 mph /  0.8 km/h 3.5 mph /  5.6 km/h 93 % 0.00 in /  0 mm
23:37 73.2 °F /  22.9 °C 71.1 °F /  21.7 °C 29.82 in /  1009.7 hPa SW 0.3 mph /  0.5 km/h 2.3 mph /  3.7 km/h 93 % 0.00 in /  0 mm
23:42 73.2 °F /  22.9 °C 71.1 °F /  21.7 °C 29.82 in /  1009.7 hPa Calm   1.2 mph /  1.9 km/h 93 % 0.00 in /  0 mm
23:47 73.3 °F /  22.9 °C 71.2 °F /  21.8 °C 29.82 in /  1009.7 hPa SW 0.1 mph /  0.2 km/h 2.3 mph /  3.7 km/h 93 % 0.00 in /  0 mm
23:52 73.3 °F /  22.9 °C 71.2 °F /  21.8 °C 29.82 in /  1009.7 hPa SW 0.3 mph /  0.5 km/h 1.2 mph /  1.9 km/h 93 % 0.00 in /  0 mm
23:57 73.3 °F /  22.9 °C 71.2 °F /  21.8 °C 29.82 in /  1009.7 hPa SW 1.0 mph /  1.6 km/h 2.0 mph /  3.2 km/h 93 % 0.00 in /  0 mm
Crab Meadow Weather
Compliments of Weather Underground - 3 mb

Script developed by  Jim McMurry - jmcmurry@mwt.net Adapted for the template by  Wim van der Kuil - Leuven-Template.eu

Weather Terms: Degree Day - Gauges the amount of heating or cooling needed for a building using 65 degrees as a baseline. To compute degree days, the average temperature for a day is taken and referenced to 65. An average temperature of 50 yields 15 heating degree days, while an average temperature of 75 would yield 10 cooling degree days.